createdAt,value
2023-03-11T00:02:30.796Z,-0.19
2023-03-11T00:05:18.470Z,-0.24
2023-03-11T00:08:05.547Z,-0.25
2023-03-11T00:11:00.581Z,-0.20
2023-03-11T00:13:45.433Z,-0.22
2023-03-11T00:16:30.400Z,-0.21
2023-03-11T00:19:15.412Z,-0.25
2023-03-11T00:22:02.249Z,-0.29
2023-03-11T00:24:47.073Z,-0.27
2023-03-11T00:27:31.979Z,-0.25
2023-03-11T00:30:18.683Z,-0.29
2023-03-11T00:33:04.404Z,-0.26
2023-03-11T00:35:49.897Z,-0.32
2023-03-11T00:38:34.719Z,-0.28
2023-03-11T00:41:20.928Z,-0.25
2023-03-11T00:44:06.186Z,-0.30
2023-03-11T00:46:51.217Z,-0.31
2023-03-11T00:49:36.894Z,-0.35
2023-03-11T00:52:21.768Z,-0.30
2023-03-11T00:55:08.060Z,-0.32
2023-03-11T00:57:54.909Z,-0.34
2023-03-11T01:00:40.126Z,-0.37
2023-03-11T01:03:24.989Z,-0.34
2023-03-11T01:06:10.021Z,-0.34
2023-03-11T01:08:55.437Z,-0.35
2023-03-11T01:11:40.143Z,-0.36
2023-03-11T01:14:25.190Z,-0.40
2023-03-11T01:17:10.258Z,-0.34
2023-03-11T01:19:55.284Z,-0.40
2023-03-11T01:22:40.286Z,-0.42
2023-03-11T01:25:25.898Z,-0.40
2023-03-11T01:28:11.368Z,-0.41
2023-03-11T01:30:56.603Z,-0.36
2023-03-11T01:33:42.182Z,-0.37
2023-03-11T01:36:27.068Z,-0.38
2023-03-11T01:39:11.972Z,-0.40
2023-03-11T01:41:56.956Z,-0.34
2023-03-11T01:44:42.504Z,-0.30
2023-03-11T01:47:36.743Z,-0.35
2023-03-11T01:50:22.713Z,-0.39
2023-03-11T01:53:09.364Z,-0.36
2023-03-11T01:55:55.498Z,-0.37
2023-03-11T01:58:46.596Z,-0.43
2023-03-11T02:01:35.979Z,-0.44
2023-03-11T02:04:27.113Z,-0.51
2023-03-11T02:07:14.487Z,-0.50
2023-03-11T02:09:59.851Z,-0.47
2023-03-11T02:12:46.570Z,-0.51
2023-03-11T02:15:31.639Z,-0.47
2023-03-11T02:18:22.117Z,-0.41
2023-03-11T02:21:16.546Z,-0.38
2023-03-11T02:24:17.496Z,-0.38
2023-03-11T02:27:12.036Z,-0.37
2023-03-11T02:30:02.547Z,-0.36
2023-03-11T02:32:49.416Z,-0.36
2023-03-11T02:35:35.854Z,-0.32
2023-03-11T02:38:20.806Z,-0.31
2023-03-11T02:41:06.693Z,-0.34
2023-03-11T02:43:52.817Z,-0.37
2023-03-11T02:46:42.628Z,-0.34
2023-03-11T02:49:29.858Z,-0.37
2023-03-11T02:52:15.232Z,-0.33
2023-03-11T02:55:01.275Z,-0.35
2023-03-11T02:57:50.798Z,-0.35
2023-03-11T03:00:36.468Z,-0.39
2023-03-11T03:03:23.154Z,-0.41
2023-03-11T03:06:09.184Z,-0.42
2023-03-11T03:08:55.962Z,-0.38
2023-03-11T03:11:41.749Z,-0.33
2023-03-11T03:14:28.212Z,-0.36
2023-03-11T03:17:13.536Z,-0.38
2023-03-11T03:19:58.993Z,-0.38
2023-03-11T03:22:44.832Z,-0.38
2023-03-11T03:25:30.260Z,-0.36
2023-03-11T03:28:18.931Z,-0.36
2023-03-11T03:31:12.458Z,-0.38
2023-03-11T03:33:59.222Z,-0.30
2023-03-11T03:36:44.317Z,-0.31
2023-03-11T03:39:30.786Z,-0.34
2023-03-11T03:42:15.935Z,-0.32
2023-03-11T03:45:01.109Z,-0.29
2023-03-11T03:47:45.938Z,-0.36
2023-03-11T03:50:31.167Z,-0.39
2023-03-11T03:53:15.966Z,-0.33
2023-03-11T03:56:08.862Z,-0.38
2023-03-11T03:58:54.207Z,-0.43
2023-03-11T04:01:39.128Z,-0.39
2023-03-11T04:04:24.269Z,-0.42
2023-03-11T04:07:09.350Z,-0.47
2023-03-11T04:09:54.267Z,-0.40
2023-03-11T04:12:39.120Z,-0.40
2023-03-11T04:15:24.176Z,-0.40
2023-03-11T04:18:09.330Z,-0.41
2023-03-11T04:20:54.424Z,-0.45
2023-03-11T04:23:39.353Z,-0.40
2023-03-11T04:26:24.576Z,-0.35
2023-03-11T04:29:09.830Z,-0.37
2023-03-11T04:31:54.894Z,-0.36
2023-03-11T04:34:41.059Z,-0.38
2023-03-11T04:37:29.822Z,-0.30
2023-03-11T04:40:15.482Z,-0.34
2023-03-11T04:43:00.411Z,-0.36
2023-03-11T04:45:45.743Z,-0.30
2023-03-11T04:48:30.738Z,-0.33
2023-03-11T04:51:15.930Z,-0.34
2023-03-11T04:54:00.974Z,-0.35
2023-03-11T04:56:46.136Z,-0.36
2023-03-11T04:59:31.151Z,-0.31
2023-03-11T05:02:16.348Z,-0.38
2023-03-11T05:05:01.674Z,-0.39
2023-03-11T05:07:47.505Z,-0.38
2023-03-11T05:10:33.736Z,-0.35
2023-03-11T05:13:19.574Z,-0.36
2023-03-11T05:16:05.209Z,-0.36
2023-03-11T05:18:50.235Z,-0.36
2023-03-11T05:21:35.440Z,-0.38
2023-03-11T05:24:20.537Z,-0.46
2023-03-11T05:27:05.688Z,-0.44
2023-03-11T05:29:50.809Z,-0.47
2023-03-11T05:32:36.520Z,-0.41
2023-03-11T05:35:21.890Z,-0.46
2023-03-11T05:38:08.034Z,-0.46
2023-03-11T05:40:53.972Z,-0.47
2023-03-11T05:43:38.967Z,-0.47
2023-03-11T05:46:24.105Z,-0.39
2023-03-11T05:49:08.952Z,-0.41
2023-03-11T05:51:58.864Z,-0.49
2023-03-11T05:54:44.247Z,-0.53
2023-03-11T05:57:29.408Z,-0.51
2023-03-11T06:00:14.733Z,-0.57
2023-03-11T06:03:00.267Z,-0.57
2023-03-11T06:05:46.701Z,-0.55
2023-03-11T06:08:34.315Z,-0.63
2023-03-11T06:11:19.544Z,-0.65
2023-03-11T06:14:06.294Z,-0.68
2023-03-11T06:16:51.425Z,-0.55
2023-03-11T06:19:36.319Z,-0.60
2023-03-11T06:22:21.430Z,-0.57
2023-03-11T06:25:06.942Z,-0.55
2023-03-11T06:27:53.274Z,-0.60
2023-03-11T06:30:38.086Z,-0.61
2023-03-11T06:33:24.014Z,-0.58
2023-03-11T06:36:10.885Z,-0.52
2023-03-11T06:38:56.652Z,-0.65
2023-03-11T06:41:42.246Z,-0.52
2023-03-11T06:44:27.407Z,-0.51
2023-03-11T06:47:12.625Z,-0.35
2023-03-11T06:49:57.594Z,-0.38
2023-03-11T06:52:42.744Z,-0.33
2023-03-11T06:55:27.749Z,-0.20
2023-03-11T06:58:13.571Z,-0.03
2023-03-11T07:01:02.536Z,0.01
2023-03-11T07:03:48.946Z,-0.04
2023-03-11T07:06:33.982Z,0.01
2023-03-11T07:09:18.778Z,0.04
2023-03-11T07:12:06.365Z,0.09
2023-03-11T07:14:56.122Z,0.16
2023-03-11T07:17:40.967Z,0.01
2023-03-11T07:20:26.266Z,-0.07
2023-03-11T07:23:12.764Z,-0.12
2023-03-11T07:25:57.773Z,-0.11
2023-03-11T07:28:42.925Z,-0.04
2023-03-11T07:31:30.411Z,-0.08
2023-03-11T07:34:17.660Z,-0.13
2023-03-11T07:37:03.632Z,-0.04
2023-03-11T07:39:49.326Z,-0.08
2023-03-11T07:42:35.717Z,-0.05
2023-03-11T07:45:20.829Z,-0.06
2023-03-11T07:48:05.732Z,-0.01
2023-03-11T07:51:00.553Z,0.11
2023-03-11T07:53:46.224Z,0.04
2023-03-11T07:56:34.239Z,0.20
2023-03-11T07:59:21.326Z,0.23
2023-03-11T08:02:06.879Z,0.17
2023-03-11T08:04:52.374Z,0.25
2023-03-11T08:07:37.314Z,0.40
2023-03-11T08:10:28.996Z,0.69
2023-03-11T08:13:17.682Z,0.72
2023-03-11T08:16:09.168Z,0.68
2023-03-11T08:18:58.903Z,0.97
2023-03-11T08:21:53.914Z,1.01
2023-03-11T08:24:41.223Z,1.07
2023-03-11T08:27:28.603Z,1.22
2023-03-11T08:30:15.135Z,1.26
2023-03-11T08:33:00.552Z,1.25
2023-03-11T08:35:45.760Z,1.11
2023-03-11T08:38:31.080Z,1.21
2023-03-11T08:41:16.278Z,1.28
2023-03-11T08:44:01.752Z,1.77
2023-03-11T08:46:47.677Z,2.08
2023-03-11T08:49:34.054Z,2.09
2023-03-11T08:52:19.248Z,2.01
2023-03-11T08:55:05.124Z,2.34
2023-03-11T08:57:51.100Z,2.52
2023-03-11T09:00:36.133Z,2.63
2023-03-11T09:03:21.473Z,2.78
2023-03-11T09:06:11.099Z,2.96
2023-03-11T09:08:57.609Z,3.04
2023-03-11T09:11:42.838Z,3.19
2023-03-11T09:14:27.987Z,2.82
2023-03-11T09:17:14.691Z,3.03
2023-03-11T09:20:00.129Z,3.33
2023-03-11T09:22:45.662Z,3.18
2023-03-11T09:25:30.567Z,2.80
2023-03-11T09:28:15.842Z,2.79
2023-03-11T09:31:01.001Z,2.78
2023-03-11T09:33:47.458Z,2.70
2023-03-11T09:36:32.371Z,2.38
2023-03-11T09:39:17.413Z,2.08
2023-03-11T09:42:11.393Z,1.81
2023-03-11T09:45:04.285Z,1.82
2023-03-11T09:48:01.668Z,1.99
2023-03-11T09:51:10.428Z,2.68
2023-03-11T09:54:03.639Z,2.86
2023-03-11T09:56:49.029Z,3.05
2023-03-11T09:59:37.191Z,2.32
2023-03-11T10:02:26.671Z,2.55
2023-03-11T10:05:20.594Z,2.73
2023-03-11T10:08:33.273Z,2.52
2023-03-11T10:11:30.893Z,2.55
2023-03-11T10:14:40.257Z,2.67
2023-03-11T10:17:43.976Z,2.88
2023-03-11T10:20:51.121Z,3.25
2023-03-11T10:24:10.257Z,3.02
2023-03-11T10:27:01.994Z,3.33
2023-03-11T10:30:02.753Z,3.72
2023-03-11T10:32:58.536Z,3.61
2023-03-11T10:35:48.049Z,3.29
2023-03-11T10:38:38.386Z,3.37
2023-03-11T10:41:26.409Z,3.23
2023-03-11T10:44:17.367Z,3.31
2023-03-11T10:47:03.378Z,3.92
2023-03-11T10:49:48.794Z,3.97
2023-03-11T10:52:44.864Z,4.38
2023-03-11T10:55:30.170Z,4.05
2023-03-11T10:58:19.245Z,3.42
2023-03-11T11:01:17.947Z,3.09
2023-03-11T11:04:03.958Z,2.88
2023-03-11T11:06:49.159Z,2.58
2023-03-11T11:09:33.927Z,2.85
2023-03-11T11:12:21.264Z,3.03
2023-03-11T11:15:07.227Z,3.66
2023-03-11T11:17:55.885Z,3.89
2023-03-11T11:20:59.574Z,3.91
2023-03-11T11:23:50.160Z,3.63
2023-03-11T11:26:35.632Z,3.41
2023-03-11T11:29:20.487Z,2.96
2023-03-11T11:32:26.159Z,3.94
2023-03-11T11:35:14.756Z,4.29
2023-03-11T11:38:05.896Z,4.04
2023-03-11T11:40:52.342Z,3.80
2023-03-11T11:44:02.367Z,4.49
2023-03-11T11:46:57.236Z,4.59
2023-03-11T11:49:51.925Z,4.76
2023-03-11T11:52:47.343Z,4.82
2023-03-11T11:55:33.614Z,5.24
2023-03-11T11:58:19.300Z,5.26
2023-03-11T12:01:14.546Z,4.38
2023-03-11T12:04:28.464Z,4.77
2023-03-11T12:07:31.927Z,5.14
2023-03-11T12:10:39.290Z,4.70
2023-03-11T12:13:57.569Z,4.46
2023-03-11T12:17:01.982Z,4.88
2023-03-11T12:20:00.421Z,4.71
2023-03-11T12:23:11.196Z,5.01
2023-03-11T12:26:22.041Z,4.62
2023-03-11T12:29:19.850Z,4.76
2023-03-11T12:32:06.581Z,4.52
2023-03-11T12:34:54.815Z,4.48
2023-03-11T12:37:46.934Z,4.26
2023-03-11T12:40:58.637Z,4.83
2023-03-11T12:43:47.800Z,5.45
2023-03-11T12:47:11.656Z,5.62
2023-03-11T12:50:34.917Z,6.23
2023-03-11T12:53:21.230Z,6.57
2023-03-11T12:56:25.288Z,6.22
2023-03-11T12:59:41.792Z,6.88
2023-03-11T13:03:17.919Z,6.34
2023-03-11T13:06:15.010Z,7.15
2023-03-11T13:09:01.647Z,7.47
2023-03-11T13:11:48.350Z,7.72
2023-03-11T13:14:35.094Z,7.77
2023-03-11T13:17:26.759Z,6.66
2023-03-11T13:20:47.585Z,5.64
2023-03-11T13:23:37.872Z,5.93
2023-03-11T13:26:33.073Z,6.72
2023-03-11T13:29:21.124Z,6.66
2023-03-11T13:32:40.575Z,6.45
2023-03-11T13:35:44.357Z,6.00
2023-03-11T13:39:03.725Z,6.35
2023-03-11T13:41:49.831Z,6.55
2023-03-11T13:44:46.154Z,7.79
2023-03-11T13:47:36.686Z,7.41
2023-03-11T13:50:43.682Z,6.47
2023-03-11T13:53:34.835Z,6.64
2023-03-11T13:56:33.300Z,7.23
2023-03-11T13:59:27.227Z,7.03
2023-03-11T14:02:19.326Z,7.45
2023-03-11T14:05:07.201Z,7.21
2023-03-11T14:07:54.013Z,7.54
2023-03-11T14:10:41.938Z,7.81
2023-03-11T14:13:38.904Z,7.93
2023-03-11T14:16:35.666Z,8.45
2023-03-11T14:19:21.182Z,8.59
2023-03-11T14:22:08.278Z,8.57
2023-03-11T14:24:53.751Z,8.84
2023-03-11T14:27:39.525Z,7.81
2023-03-11T14:30:30.152Z,7.58
2023-03-11T14:33:22.149Z,6.44
2023-03-11T14:36:13.673Z,6.51
2023-03-11T14:38:58.643Z,5.60
2023-03-11T14:41:43.943Z,5.29
2023-03-11T14:44:34.329Z,4.84
2023-03-11T14:47:30.499Z,4.62
2023-03-11T14:50:21.343Z,4.51
2023-03-11T14:53:13.837Z,4.33
2023-03-11T14:56:21.215Z,4.10
2023-03-11T14:59:15.436Z,4.11
2023-03-11T15:02:39.549Z,4.15
2023-03-11T15:05:33.596Z,3.98
2023-03-11T15:08:21.896Z,3.91
2023-03-11T15:11:14.006Z,4.05
2023-03-11T15:14:17.687Z,4.03
2023-03-11T15:17:32.870Z,4.06
2023-03-11T15:20:34.424Z,3.94
2023-03-11T15:23:22.562Z,3.85
2023-03-11T15:26:19.114Z,3.91
2023-03-11T15:29:16.687Z,3.71
2023-03-11T15:32:38.604Z,3.74
2023-03-11T15:35:28.830Z,3.72
2023-03-11T15:38:25.562Z,3.66
2023-03-11T15:41:11.206Z,3.71
2023-03-11T15:44:00.404Z,3.78
2023-03-11T15:46:47.436Z,4.10
2023-03-11T15:49:33.613Z,4.84
2023-03-11T15:52:22.140Z,5.59
2023-03-11T15:55:08.321Z,6.10
2023-03-11T15:58:04.766Z,6.93
2023-03-11T16:00:56.366Z,7.12
2023-03-11T16:03:41.715Z,7.28
2023-03-11T16:06:26.987Z,7.43
2023-03-11T16:09:15.500Z,7.25
2023-03-11T16:12:02.461Z,6.58
2023-03-11T16:14:48.995Z,5.97
2023-03-11T16:17:48.951Z,5.18
2023-03-11T16:20:44.561Z,4.82
2023-03-11T16:23:50.184Z,4.35
2023-03-11T16:26:35.736Z,4.09
2023-03-11T16:29:23.114Z,3.88
2023-03-11T16:32:11.174Z,3.58
2023-03-11T16:34:56.184Z,3.41
2023-03-11T16:37:43.700Z,3.37
2023-03-11T16:40:29.915Z,3.35
2023-03-11T16:43:15.349Z,3.21
2023-03-11T16:46:00.235Z,3.20
2023-03-11T16:48:45.790Z,3.12
2023-03-11T16:51:31.206Z,3.10
2023-03-11T16:54:19.152Z,3.07
2023-03-11T16:57:04.144Z,3.05
2023-03-11T16:59:49.345Z,2.99
2023-03-11T17:02:35.399Z,2.93
2023-03-11T17:05:20.506Z,2.87
2023-03-11T17:08:08.527Z,2.67
2023-03-11T17:10:56.120Z,2.68
2023-03-11T17:13:41.564Z,2.62
2023-03-11T17:16:26.916Z,2.53
2023-03-11T17:19:15.682Z,2.51
2023-03-11T17:22:00.846Z,2.44
2023-03-11T17:24:45.715Z,2.35
2023-03-11T17:27:32.492Z,2.37
2023-03-11T17:30:35.640Z,2.19
2023-03-11T17:33:21.252Z,2.11
2023-03-11T17:36:08.894Z,2.15
2023-03-11T17:41:57.734Z,2.12
2023-03-11T17:44:51.487Z,2.16
2023-03-11T17:47:37.377Z,2.09
2023-03-11T17:50:23.705Z,2.14
2023-03-11T17:53:10.122Z,2.24
2023-03-11T17:55:55.333Z,2.24
2023-03-11T17:58:40.959Z,2.20
2023-03-11T18:01:27.937Z,2.09
2023-03-11T18:04:13.209Z,2.13
2023-03-11T18:06:58.201Z,1.88
2023-03-11T18:09:43.519Z,1.86
2023-03-11T18:12:28.435Z,1.76
2023-03-11T18:15:16.567Z,1.74
2023-03-11T18:18:02.816Z,1.79
2023-03-11T18:20:48.213Z,1.80
2023-03-11T18:23:35.114Z,1.78
2023-03-11T18:26:20.625Z,1.85
2023-03-11T18:29:05.544Z,1.67
2023-03-11T18:31:50.837Z,1.67
2023-03-11T18:34:35.990Z,1.78
2023-03-11T18:37:21.425Z,1.49
2023-03-11T18:40:07.363Z,1.44
2023-03-11T18:42:53.038Z,1.47
2023-03-11T18:45:39.484Z,1.49
2023-03-11T18:48:27.889Z,1.45
2023-03-11T18:51:13.980Z,1.45
2023-03-11T18:54:01.844Z,1.50
2023-03-11T18:56:46.983Z,1.53
2023-03-11T18:59:31.914Z,1.58
2023-03-11T19:02:18.299Z,1.38
2023-03-11T19:05:04.366Z,1.35
2023-03-11T19:07:49.532Z,1.34
2023-03-11T19:10:34.458Z,1.30
2023-03-11T19:13:20.952Z,1.44
2023-03-11T19:16:08.182Z,1.11
2023-03-11T19:18:55.052Z,1.23
2023-03-11T19:21:41.838Z,1.25
2023-03-11T19:24:26.952Z,1.17
2023-03-11T19:27:13.070Z,1.07
2023-03-11T19:29:58.189Z,0.95
2023-03-11T19:32:43.180Z,0.91
2023-03-11T19:35:29.181Z,1.02
2023-03-11T19:38:14.016Z,0.93
2023-03-11T19:41:05.078Z,1.11
2023-03-11T19:43:50.352Z,0.86
2023-03-11T19:46:36.205Z,0.88
2023-03-11T19:49:21.935Z,1.06
2023-03-11T19:52:10.061Z,1.18
2023-03-11T19:54:58.572Z,1.06
2023-03-11T19:57:43.800Z,1.12
2023-03-11T20:00:31.676Z,1.11
2023-03-11T20:03:17.634Z,1.18
2023-03-11T20:06:05.417Z,1.33
2023-03-11T20:08:51.050Z,1.34
2023-03-11T20:11:40.631Z,0.94
2023-03-11T20:14:27.853Z,0.70
2023-03-11T20:17:14.654Z,0.79
2023-03-11T20:20:02.719Z,0.92
2023-03-11T20:22:48.079Z,0.94
2023-03-11T20:25:35.771Z,0.89
2023-03-11T20:28:23.448Z,0.95
2023-03-11T20:31:14.637Z,0.73
2023-03-11T20:34:01.835Z,1.00
2023-03-11T20:36:48.903Z,0.85
2023-03-11T20:39:35.995Z,0.71
2023-03-11T20:42:24.590Z,0.87
2023-03-11T20:45:11.943Z,0.55
2023-03-11T20:47:58.007Z,0.40
2023-03-11T20:50:45.210Z,0.50
2023-03-11T20:53:31.687Z,0.72
2023-03-11T20:56:19.684Z,0.80
2023-03-11T20:59:07.715Z,0.81
2023-03-11T21:01:54.656Z,0.84
2023-03-11T21:04:42.942Z,0.81
2023-03-11T21:07:27.978Z,0.65
2023-03-11T21:10:14.510Z,0.68
2023-03-11T21:12:59.978Z,0.91
2023-03-11T21:15:47.336Z,0.99
2023-03-11T21:18:32.729Z,0.84
2023-03-11T21:21:18.855Z,1.09
2023-03-11T21:24:05.101Z,0.83
2023-03-11T21:26:50.207Z,1.00
2023-03-11T21:29:35.300Z,0.81
2023-03-11T21:32:20.420Z,0.69
2023-03-11T21:35:06.831Z,0.61
2023-03-11T21:37:55.260Z,0.60
2023-03-11T21:40:43.612Z,0.49
2023-03-11T21:43:30.329Z,0.74
2023-03-11T21:46:18.455Z,0.66
2023-03-11T21:49:03.780Z,0.79
2023-03-11T21:51:49.013Z,0.67
2023-03-11T21:54:35.644Z,0.61
2023-03-11T21:57:24.294Z,0.86
2023-03-11T22:00:11.255Z,0.63
2023-03-11T22:02:58.100Z,0.62
2023-03-11T22:05:43.476Z,0.38
2023-03-11T22:08:28.692Z,0.38
2023-03-11T22:11:19.540Z,0.34
2023-03-11T22:14:06.458Z,0.46
2023-03-11T22:16:52.416Z,0.47
2023-03-11T22:19:40.107Z,0.68
2023-03-11T22:22:26.810Z,0.65
2023-03-11T22:25:12.054Z,0.65
2023-03-11T22:27:57.543Z,0.41
2023-03-11T22:30:42.576Z,0.72
2023-03-11T22:33:27.959Z,0.51
2023-03-11T22:36:14.863Z,0.44
2023-03-11T22:39:05.125Z,0.55
2023-03-11T22:41:50.310Z,0.60
2023-03-11T22:44:35.423Z,0.43
2023-03-11T22:47:21.096Z,0.44
2023-03-11T22:50:06.149Z,0.54
2023-03-11T22:52:51.822Z,0.45
2023-03-11T22:55:44.154Z,0.38
2023-03-11T22:58:30.370Z,0.36
2023-03-11T23:01:16.492Z,0.44
2023-03-11T23:04:05.104Z,0.57
2023-03-11T23:06:50.178Z,0.44
2023-03-11T23:09:35.398Z,0.44
2023-03-11T23:12:20.589Z,0.25
2023-03-11T23:15:08.855Z,0.09
2023-03-11T23:17:54.221Z,0.10
2023-03-11T23:20:40.466Z,0.13
2023-03-11T23:23:25.604Z,0.04
2023-03-11T23:26:12.215Z,-0.02
2023-03-11T23:28:59.629Z,0.32
2023-03-11T23:31:44.477Z,-0.02
2023-03-11T23:34:29.494Z,0.08
2023-03-11T23:37:14.428Z,0.23
2023-03-11T23:40:00.697Z,0.10
2023-03-11T23:42:45.873Z,0.24
2023-03-11T23:45:30.825Z,0.03
2023-03-11T23:48:16.807Z,-0.01
2023-03-11T23:51:02.226Z,0.06
2023-03-11T23:53:47.693Z,-0.08
2023-03-11T23:56:32.925Z,0.23
2023-03-11T23:59:18.899Z,0.06
